sensor_id;sensor_type;location;lat;lon;timestamp;P1;durP1;ratioP1;P2;durP2;ratioP2
8213;SDS011;4148;47.974;7.824;2023-04-28T00:02:27;2.50;;;1.87;;
8213;SDS011;4148;47.974;7.824;2023-04-28T00:04:55;5.00;;;1.80;;
8213;SDS011;4148;47.974;7.824;2023-04-28T00:07:24;2.00;;;1.63;;
8213;SDS011;4148;47.974;7.824;2023-04-28T00:09:52;2.20;;;2.00;;
8213;SDS011;4148;47.974;7.824;2023-04-28T00:12:20;2.53;;;1.70;;
8213;SDS011;4148;47.974;7.824;2023-04-28T00:14:49;2.40;;;1.90;;
8213;SDS011;4148;47.974;7.824;2023-04-28T00:17:17;2.80;;;1.87;;
8213;SDS011;4148;47.974;7.824;2023-04-28T00:19:44;3.67;;;1.80;;
8213;SDS011;4148;47.974;7.824;2023-04-28T00:22:12;2.63;;;1.93;;
8213;SDS011;4148;47.974;7.824;2023-04-28T00:24:40;2.43;;;1.80;;
8213;SDS011;4148;47.974;7.824;2023-04-28T00:27:08;2.17;;;1.70;;
8213;SDS011;4148;47.974;7.824;2023-04-28T00:29:36;3.93;;;1.50;;
8213;SDS011;4148;47.974;7.824;2023-04-28T00:32:05;3.30;;;2.13;;
8213;SDS011;4148;47.974;7.824;2023-04-28T00:34:33;4.43;;;1.73;;
8213;SDS011;4148;47.974;7.824;2023-04-28T00:37:02;2.23;;;1.97;;
8213;SDS011;4148;47.974;7.824;2023-04-28T00:39:30;3.43;;;2.43;;
8213;SDS011;4148;47.974;7.824;2023-04-28T00:41:58;2.27;;;2.07;;
8213;SDS011;4148;47.974;7.824;2023-04-28T00:44:27;2.73;;;2.00;;
8213;SDS011;4148;47.974;7.824;2023-04-28T00:46:55;2.63;;;1.93;;
8213;SDS011;4148;47.974;7.824;2023-04-28T00:49:26;2.10;;;1.90;;
8213;SDS011;4148;47.974;7.824;2023-04-28T00:51:54;4.40;;;1.73;;
8213;SDS011;4148;47.974;7.824;2023-04-28T00:54:21;2.77;;;2.23;;
8213;SDS011;4148;47.974;7.824;2023-04-28T00:56:49;3.83;;;2.80;;
8213;SDS011;4148;47.974;7.824;2023-04-28T00:59:17;3.00;;;2.03;;
8213;SDS011;4148;47.974;7.824;2023-04-28T01:01:45;2.87;;;2.30;;
8213;SDS011;4148;47.974;7.824;2023-04-28T01:04:14;3.07;;;2.20;;
8213;SDS011;4148;47.974;7.824;2023-04-28T01:06:45;2.57;;;2.37;;
8213;SDS011;4148;47.974;7.824;2023-04-28T01:09:13;3.70;;;2.50;;
8213;SDS011;4148;47.974;7.824;2023-04-28T01:11:41;5.23;;;2.23;;
8213;SDS011;4148;47.974;7.824;2023-04-28T01:14:09;2.33;;;2.13;;
8213;SDS011;4148;47.974;7.824;2023-04-28T01:16:36;3.50;;;2.60;;
8213;SDS011;4148;47.974;7.824;2023-04-28T01:19:05;7.97;;;2.93;;
8213;SDS011;4148;47.974;7.824;2023-04-28T01:21:34;5.70;;;3.43;;
8213;SDS011;4148;47.974;7.824;2023-04-28T01:24:03;4.60;;;2.80;;
8213;SDS011;4148;47.974;7.824;2023-04-28T01:26:32;7.40;;;3.23;;
8213;SDS011;4148;47.974;7.824;2023-04-28T01:29:00;5.07;;;2.97;;
8213;SDS011;4148;47.974;7.824;2023-04-28T01:31:28;3.60;;;3.00;;
8213;SDS011;4148;47.974;7.824;2023-04-28T01:33:56;4.00;;;3.60;;
8213;SDS011;4148;47.974;7.824;2023-04-28T01:36:24;4.63;;;3.30;;
8213;SDS011;4148;47.974;7.824;2023-04-28T01:38:52;8.13;;;3.30;;
8213;SDS011;4148;47.974;7.824;2023-04-28T01:41:22;4.63;;;3.77;;
8213;SDS011;4148;47.974;7.824;2023-04-28T01:43:49;5.13;;;3.10;;
8213;SDS011;4148;47.974;7.824;2023-04-28T01:46:17;5.90;;;3.63;;
8213;SDS011;4148;47.974;7.824;2023-04-28T01:48:45;6.67;;;4.00;;
8213;SDS011;4148;47.974;7.824;2023-04-28T01:51:13;4.23;;;3.43;;
8213;SDS011;4148;47.974;7.824;2023-04-28T01:53:41;7.10;;;4.00;;
8213;SDS011;4148;47.974;7.824;2023-04-28T01:56:09;4.67;;;3.80;;
8213;SDS011;4148;47.974;7.824;2023-04-28T01:58:38;8.13;;;4.40;;
8213;SDS011;4148;47.974;7.824;2023-04-28T02:01:06;5.20;;;4.30;;
8213;SDS011;4148;47.974;7.824;2023-04-28T02:03:33;8.50;;;4.50;;
8213;SDS011;4148;47.974;7.824;2023-04-28T02:06:02;6.90;;;4.53;;
8213;SDS011;4148;47.974;7.824;2023-04-28T02:08:30;7.33;;;5.20;;
8213;SDS011;4148;47.974;7.824;2023-04-28T02:10:57;8.97;;;5.43;;
8213;SDS011;4148;47.974;7.824;2023-04-28T02:13:26;10.73;;;6.23;;
8213;SDS011;4148;47.974;7.824;2023-04-28T02:15:58;7.40;;;5.13;;
8213;SDS011;4148;47.974;7.824;2023-04-28T02:18:27;7.03;;;4.83;;
8213;SDS011;4148;47.974;7.824;2023-04-28T02:20:55;8.00;;;5.30;;
8213;SDS011;4148;47.974;7.824;2023-04-28T02:23:23;8.13;;;5.77;;
8213;SDS011;4148;47.974;7.824;2023-04-28T02:25:59;9.50;;;5.93;;
8213;SDS011;4148;47.974;7.824;2023-04-28T02:28:28;8.50;;;5.47;;
8213;SDS011;4148;47.974;7.824;2023-04-28T02:31:03;10.57;;;6.13;;
8213;SDS011;4148;47.974;7.824;2023-04-28T02:33:32;8.23;;;5.37;;
8213;SDS011;4148;47.974;7.824;2023-04-28T02:36:00;10.63;;;5.97;;
8213;SDS011;4148;47.974;7.824;2023-04-28T02:38:28;10.10;;;6.20;;
8213;SDS011;4148;47.974;7.824;2023-04-28T02:40:57;8.20;;;5.53;;
8213;SDS011;4148;47.974;7.824;2023-04-28T02:43:26;8.80;;;5.13;;
8213;SDS011;4148;47.974;7.824;2023-04-28T02:45:54;8.87;;;4.90;;
8213;SDS011;4148;47.974;7.824;2023-04-28T02:48:23;5.10;;;4.40;;
8213;SDS011;4148;47.974;7.824;2023-04-28T02:50:51;6.13;;;4.07;;
8213;SDS011;4148;47.974;7.824;2023-04-28T02:53:19;9.30;;;4.00;;
8213;SDS011;4148;47.974;7.824;2023-04-28T02:55:48;9.73;;;4.30;;
8213;SDS011;4148;47.974;7.824;2023-04-28T02:58:16;8.60;;;3.50;;
8213;SDS011;4148;47.974;7.824;2023-04-28T03:00:44;5.30;;;3.37;;
8213;SDS011;4148;47.974;7.824;2023-04-28T03:03:12;6.50;;;3.80;;
8213;SDS011;4148;47.974;7.824;2023-04-28T03:05:41;4.03;;;3.53;;
8213;SDS011;4148;47.974;7.824;2023-04-28T03:08:09;6.80;;;3.80;;
8213;SDS011;4148;47.974;7.824;2023-04-28T03:10:37;6.13;;;3.80;;
8213;SDS011;4148;47.974;7.824;2023-04-28T03:13:05;5.03;;;3.97;;
8213;SDS011;4148;47.974;7.824;2023-04-28T03:15:32;6.47;;;3.57;;
8213;SDS011;4148;47.974;7.824;2023-04-28T03:18:00;5.90;;;4.03;;
8213;SDS011;4148;47.974;7.824;2023-04-28T03:20:28;6.03;;;4.00;;
8213;SDS011;4148;47.974;7.824;2023-04-28T03:22:57;4.77;;;4.20;;
8213;SDS011;4148;47.974;7.824;2023-04-28T03:25:27;7.13;;;3.93;;
8213;SDS011;4148;47.974;7.824;2023-04-28T03:27:55;7.87;;;3.70;;
8213;SDS011;4148;47.974;7.824;2023-04-28T03:30:23;6.43;;;3.53;;
8213;SDS011;4148;47.974;7.824;2023-04-28T03:32:50;6.67;;;4.13;;
8213;SDS011;4148;47.974;7.824;2023-04-28T03:35:18;5.90;;;4.10;;
8213;SDS011;4148;47.974;7.824;2023-04-28T03:37:46;4.37;;;3.97;;
8213;SDS011;4148;47.974;7.824;2023-04-28T03:40:16;4.50;;;3.57;;
8213;SDS011;4148;47.974;7.824;2023-04-28T03:42:44;4.13;;;3.30;;
8213;SDS011;4148;47.974;7.824;2023-04-28T03:45:12;5.80;;;3.83;;
8213;SDS011;4148;47.974;7.824;2023-04-28T03:47:39;6.00;;;3.27;;
8213;SDS011;4148;47.974;7.824;2023-04-28T03:50:07;6.00;;;3.43;;
8213;SDS011;4148;47.974;7.824;2023-04-28T03:52:35;4.63;;;3.33;;
8213;SDS011;4148;47.974;7.824;2023-04-28T03:55:04;4.90;;;3.23;;
8213;SDS011;4148;47.974;7.824;2023-04-28T03:57:33;6.33;;;3.37;;
8213;SDS011;4148;47.974;7.824;2023-04-28T04:00:02;3.90;;;3.43;;
8213;SDS011;4148;47.974;7.824;2023-04-28T04:02:30;4.53;;;3.67;;
8213;SDS011;4148;47.974;7.824;2023-04-28T04:04:58;5.30;;;3.30;;
8213;SDS011;4148;47.974;7.824;2023-04-28T04:07:27;5.47;;;3.63;;
8213;SDS011;4148;47.974;7.824;2023-04-28T04:09:55;4.03;;;3.43;;
8213;SDS011;4148;47.974;7.824;2023-04-28T04:12:23;4.20;;;3.67;;
8213;SDS011;4148;47.974;7.824;2023-04-28T04:14:52;4.63;;;4.03;;
8213;SDS011;4148;47.974;7.824;2023-04-28T04:17:20;5.53;;;3.30;;
8213;SDS011;4148;47.974;7.824;2023-04-28T04:19:48;4.47;;;3.30;;
8213;SDS011;4148;47.974;7.824;2023-04-28T04:22:15;5.10;;;3.20;;
8213;SDS011;4148;47.974;7.824;2023-04-28T04:24:43;4.20;;;2.93;;
8213;SDS011;4148;47.974;7.824;2023-04-28T04:27:11;3.87;;;3.40;;
8213;SDS011;4148;47.974;7.824;2023-04-28T04:29:39;6.20;;;3.17;;
8213;SDS011;4148;47.974;7.824;2023-04-28T04:32:08;3.57;;;3.20;;
8213;SDS011;4148;47.974;7.824;2023-04-28T04:34:36;3.30;;;2.97;;
8213;SDS011;4148;47.974;7.824;2023-04-28T04:37:04;2.93;;;2.53;;
8213;SDS011;4148;47.974;7.824;2023-04-28T04:39:32;3.03;;;2.73;;
8213;SDS011;4148;47.974;7.824;2023-04-28T04:42:00;4.70;;;2.90;;
8213;SDS011;4148;47.974;7.824;2023-04-28T04:44:48;5.57;;;3.13;;
8213;SDS011;4148;47.974;7.824;2023-04-28T04:47:18;4.67;;;3.40;;
8213;SDS011;4148;47.974;7.824;2023-04-28T04:49:46;6.60;;;4.20;;
8213;SDS011;4148;47.974;7.824;2023-04-28T04:52:14;6.13;;;3.00;;
8213;SDS011;4148;47.974;7.824;2023-04-28T04:54:42;5.20;;;3.13;;
8213;SDS011;4148;47.974;7.824;2023-04-28T04:57:10;3.53;;;3.23;;
8213;SDS011;4148;47.974;7.824;2023-04-28T04:59:38;4.80;;;3.50;;
8213;SDS011;4148;47.974;7.824;2023-04-28T05:02:06;4.40;;;3.27;;
8213;SDS011;4148;47.974;7.824;2023-04-28T05:04:36;8.63;;;3.63;;
8213;SDS011;4148;47.974;7.824;2023-04-28T05:07:04;4.70;;;3.40;;
8213;SDS011;4148;47.974;7.824;2023-04-28T05:09:32;4.93;;;3.57;;
8213;SDS011;4148;47.974;7.824;2023-04-28T05:11:59;3.90;;;3.40;;
8213;SDS011;4148;47.974;7.824;2023-04-28T05:14:27;4.00;;;3.60;;
8213;SDS011;4148;47.974;7.824;2023-04-28T05:16:55;5.60;;;3.80;;
8213;SDS011;4148;47.974;7.824;2023-04-28T05:19:23;4.17;;;3.37;;
8213;SDS011;4148;47.974;7.824;2023-04-28T05:21:52;5.33;;;4.17;;
8213;SDS011;4148;47.974;7.824;2023-04-28T05:24:20;4.47;;;3.50;;
8213;SDS011;4148;47.974;7.824;2023-04-28T05:26:49;5.60;;;3.63;;
8213;SDS011;4148;47.974;7.824;2023-04-28T05:29:17;9.07;;;4.40;;
8213;SDS011;4148;47.974;7.824;2023-04-28T05:31:45;4.63;;;3.50;;
8213;SDS011;4148;47.974;7.824;2023-04-28T05:34:13;6.50;;;3.60;;
8213;SDS011;4148;47.974;7.824;2023-04-28T05:36:41;5.10;;;3.93;;
8213;SDS011;4148;47.974;7.824;2023-04-28T05:39:11;4.80;;;3.37;;
8213;SDS011;4148;47.974;7.824;2023-04-28T05:41:39;3.97;;;3.40;;
8213;SDS011;4148;47.974;7.824;2023-04-28T05:44:07;4.73;;;3.33;;
8213;SDS011;4148;47.974;7.824;2023-04-28T05:46:35;4.30;;;3.67;;
8213;SDS011;4148;47.974;7.824;2023-04-28T05:49:03;5.33;;;3.90;;
8213;SDS011;4148;47.974;7.824;2023-04-28T05:51:31;4.70;;;3.87;;
8213;SDS011;4148;47.974;7.824;2023-04-28T05:53:59;5.33;;;4.10;;
8213;SDS011;4148;47.974;7.824;2023-04-28T05:56:29;4.40;;;3.27;;
8213;SDS011;4148;47.974;7.824;2023-04-28T05:58:56;5.30;;;3.60;;
8213;SDS011;4148;47.974;7.824;2023-04-28T06:01:27;5.57;;;3.77;;
8213;SDS011;4148;47.974;7.824;2023-04-28T06:03:55;4.80;;;3.90;;
8213;SDS011;4148;47.974;7.824;2023-04-28T06:06:24;5.47;;;3.70;;
8213;SDS011;4148;47.974;7.824;2023-04-28T06:08:52;5.27;;;3.63;;
8213;SDS011;4148;47.974;7.824;2023-04-28T06:11:20;4.17;;;3.40;;
8213;SDS011;4148;47.974;7.824;2023-04-28T06:13:50;5.60;;;4.03;;
8213;SDS011;4148;47.974;7.824;2023-04-28T06:16:17;6.03;;;3.97;;
8213;SDS011;4148;47.974;7.824;2023-04-28T06:18:46;7.90;;;4.50;;
8213;SDS011;4148;47.974;7.824;2023-04-28T06:21:15;7.47;;;4.10;;
8213;SDS011;4148;47.974;7.824;2023-04-28T06:23:43;4.43;;;3.60;;
8213;SDS011;4148;47.974;7.824;2023-04-28T06:26:11;4.80;;;3.90;;
8213;SDS011;4148;47.974;7.824;2023-04-28T06:28:40;4.60;;;3.90;;
8213;SDS011;4148;47.974;7.824;2023-04-28T06:31:09;4.43;;;3.53;;
8213;SDS011;4148;47.974;7.824;2023-04-28T06:33:37;8.90;;;3.70;;
8213;SDS011;4148;47.974;7.824;2023-04-28T06:36:06;8.40;;;4.20;;
8213;SDS011;4148;47.974;7.824;2023-04-28T06:38:34;5.03;;;3.67;;
8213;SDS011;4148;47.974;7.824;2023-04-28T06:41:02;6.83;;;4.10;;
8213;SDS011;4148;47.974;7.824;2023-04-28T06:43:30;5.33;;;3.73;;
8213;SDS011;4148;47.974;7.824;2023-04-28T06:45:58;6.60;;;3.70;;
8213;SDS011;4148;47.974;7.824;2023-04-28T06:48:27;8.63;;;4.33;;
8213;SDS011;4148;47.974;7.824;2023-04-28T06:50:55;5.50;;;4.20;;
8213;SDS011;4148;47.974;7.824;2023-04-28T06:53:23;4.77;;;3.73;;
8213;SDS011;4148;47.974;7.824;2023-04-28T06:55:51;4.60;;;3.90;;
8213;SDS011;4148;47.974;7.824;2023-04-28T06:58:19;6.93;;;4.53;;
8213;SDS011;4148;47.974;7.824;2023-04-28T07:00:47;7.97;;;4.20;;
8213;SDS011;4148;47.974;7.824;2023-04-28T07:03:15;6.10;;;4.00;;
8213;SDS011;4148;47.974;7.824;2023-04-28T07:05:44;6.53;;;3.80;;
8213;SDS011;4148;47.974;7.824;2023-04-28T07:08:12;7.73;;;4.43;;
8213;SDS011;4148;47.974;7.824;2023-04-28T07:10:40;6.00;;;4.13;;
8213;SDS011;4148;47.974;7.824;2023-04-28T07:13:08;7.33;;;5.30;;
8213;SDS011;4148;47.974;7.824;2023-04-28T07:15:36;6.30;;;4.20;;
8213;SDS011;4148;47.974;7.824;2023-04-28T07:18:04;5.10;;;4.57;;
8213;SDS011;4148;47.974;7.824;2023-04-28T07:20:32;6.83;;;4.60;;
8213;SDS011;4148;47.974;7.824;2023-04-28T07:23:01;6.10;;;4.63;;
8213;SDS011;4148;47.974;7.824;2023-04-28T07:25:29;5.47;;;4.30;;
8213;SDS011;4148;47.974;7.824;2023-04-28T07:27:58;8.60;;;5.50;;
8213;SDS011;4148;47.974;7.824;2023-04-28T07:30:26;8.90;;;4.27;;
8213;SDS011;4148;47.974;7.824;2023-04-28T07:32:53;5.40;;;3.80;;
8213;SDS011;4148;47.974;7.824;2023-04-28T07:35:21;4.90;;;3.97;;
8213;SDS011;4148;47.974;7.824;2023-04-28T07:37:50;7.23;;;4.20;;
8213;SDS011;4148;47.974;7.824;2023-04-28T07:40:19;8.37;;;4.03;;
8213;SDS011;4148;47.974;7.824;2023-04-28T07:42:48;7.77;;;4.03;;
8213;SDS011;4148;47.974;7.824;2023-04-28T07:45:16;5.70;;;4.30;;
8213;SDS011;4148;47.974;7.824;2023-04-28T07:47:44;4.07;;;3.50;;
8213;SDS011;4148;47.974;7.824;2023-04-28T07:50:12;5.40;;;3.97;;
8213;SDS011;4148;47.974;7.824;2023-04-28T07:52:41;4.10;;;3.57;;
8213;SDS011;4148;47.974;7.824;2023-04-28T07:55:09;4.83;;;3.43;;
8213;SDS011;4148;47.974;7.824;2023-04-28T07:57:39;4.13;;;3.27;;
8213;SDS011;4148;47.974;7.824;2023-04-28T08:00:07;4.90;;;3.63;;
8213;SDS011;4148;47.974;7.824;2023-04-28T08:02:37;4.47;;;3.60;;
8213;SDS011;4148;47.974;7.824;2023-04-28T08:05:05;4.83;;;4.33;;
8213;SDS011;4148;47.974;7.824;2023-04-28T08:07:35;11.27;;;3.60;;
8213;SDS011;4148;47.974;7.824;2023-04-28T08:10:03;4.40;;;3.70;;
8213;SDS011;4148;47.974;7.824;2023-04-28T08:12:31;4.80;;;4.00;;
8213;SDS011;4148;47.974;7.824;2023-04-28T08:15:00;4.17;;;3.63;;
8213;SDS011;4148;47.974;7.824;2023-04-28T08:17:29;5.07;;;4.13;;
8213;SDS011;4148;47.974;7.824;2023-04-28T08:19:57;5.53;;;3.70;;
8213;SDS011;4148;47.974;7.824;2023-04-28T08:22:25;3.87;;;3.23;;
8213;SDS011;4148;47.974;7.824;2023-04-28T08:24:53;5.03;;;4.10;;
8213;SDS011;4148;47.974;7.824;2023-04-28T08:27:21;7.67;;;3.57;;
8213;SDS011;4148;47.974;7.824;2023-04-28T08:29:50;5.13;;;4.07;;
8213;SDS011;4148;47.974;7.824;2023-04-28T08:32:20;4.67;;;3.30;;
8213;SDS011;4148;47.974;7.824;2023-04-28T08:34:48;7.13;;;3.27;;
8213;SDS011;4148;47.974;7.824;2023-04-28T08:37:15;4.00;;;3.40;;
8213;SDS011;4148;47.974;7.824;2023-04-28T08:39:44;4.43;;;3.53;;
8213;SDS011;4148;47.974;7.824;2023-04-28T08:42:12;3.77;;;3.30;;
8213;SDS011;4148;47.974;7.824;2023-04-28T08:44:40;7.37;;;4.50;;
8213;SDS011;4148;47.974;7.824;2023-04-28T08:47:10;5.57;;;4.07;;
8213;SDS011;4148;47.974;7.824;2023-04-28T08:49:41;4.00;;;3.60;;
8213;SDS011;4148;47.974;7.824;2023-04-28T08:52:10;3.03;;;2.73;;
8213;SDS011;4148;47.974;7.824;2023-04-28T08:54:39;3.30;;;3.00;;
8213;SDS011;4148;47.974;7.824;2023-04-28T08:57:07;5.17;;;2.97;;
8213;SDS011;4148;47.974;7.824;2023-04-28T08:59:39;4.30;;;3.10;;
8213;SDS011;4148;47.974;7.824;2023-04-28T09:02:07;3.93;;;3.50;;
8213;SDS011;4148;47.974;7.824;2023-04-28T09:04:36;4.20;;;3.80;;
8213;SDS011;4148;47.974;7.824;2023-04-28T09:07:10;4.10;;;3.70;;
8213;SDS011;4148;47.974;7.824;2023-04-28T09:09:39;3.90;;;3.50;;
8213;SDS011;4148;47.974;7.824;2023-04-28T09:12:07;4.93;;;3.83;;
8213;SDS011;4148;47.974;7.824;2023-04-28T09:14:35;4.50;;;3.70;;
8213;SDS011;4148;47.974;7.824;2023-04-28T09:17:08;4.57;;;4.07;;
8213;SDS011;4148;47.974;7.824;2023-04-28T09:19:38;4.90;;;4.40;;
8213;SDS011;4148;47.974;7.824;2023-04-28T09:22:08;4.30;;;3.70;;
8213;SDS011;4148;47.974;7.824;2023-04-28T09:24:54;4.80;;;4.17;;
8213;SDS011;4148;47.974;7.824;2023-04-28T09:27:25;5.13;;;3.93;;
8213;SDS011;4148;47.974;7.824;2023-04-28T09:29:54;5.60;;;3.33;;
8213;SDS011;4148;47.974;7.824;2023-04-28T09:32:22;4.53;;;3.10;;
8213;SDS011;4148;47.974;7.824;2023-04-28T09:34:53;4.57;;;3.40;;
8213;SDS011;4148;47.974;7.824;2023-04-28T09:37:23;5.93;;;3.43;;
8213;SDS011;4148;47.974;7.824;2023-04-28T09:39:53;4.47;;;3.80;;
8213;SDS011;4148;47.974;7.824;2023-04-28T09:42:32;6.53;;;4.53;;
8213;SDS011;4148;47.974;7.824;2023-04-28T09:45:02;4.60;;;4.20;;
8213;SDS011;4148;47.974;7.824;2023-04-28T09:47:31;5.60;;;4.60;;
8213;SDS011;4148;47.974;7.824;2023-04-28T09:50:01;5.07;;;4.57;;
8213;SDS011;4148;47.974;7.824;2023-04-28T09:52:30;4.70;;;3.83;;
8213;SDS011;4148;47.974;7.824;2023-04-28T09:55:01;4.40;;;3.47;;
8213;SDS011;4148;47.974;7.824;2023-04-28T09:57:31;4.13;;;3.73;;
8213;SDS011;4148;47.974;7.824;2023-04-28T10:00:00;5.93;;;3.57;;
8213;SDS011;4148;47.974;7.824;2023-04-28T10:02:31;3.90;;;3.60;;
8213;SDS011;4148;47.974;7.824;2023-04-28T10:05:04;5.43;;;3.70;;
8213;SDS011;4148;47.974;7.824;2023-04-28T10:07:35;6.00;;;3.83;;
8213;SDS011;4148;47.974;7.824;2023-04-28T10:10:05;5.13;;;3.70;;
8213;SDS011;4148;47.974;7.824;2023-04-28T10:12:34;4.20;;;3.80;;
8213;SDS011;4148;47.974;7.824;2023-04-28T10:15:04;3.90;;;3.60;;
8213;SDS011;4148;47.974;7.824;2023-04-28T10:17:33;4.77;;;3.77;;
8213;SDS011;4148;47.974;7.824;2023-04-28T10:20:02;5.00;;;3.93;;
8213;SDS011;4148;47.974;7.824;2023-04-28T10:22:36;4.07;;;3.67;;
8213;SDS011;4148;47.974;7.824;2023-04-28T10:25:23;3.63;;;3.10;;
8213;SDS011;4148;47.974;7.824;2023-04-28T10:27:54;4.77;;;3.80;;
8213;SDS011;4148;47.974;7.824;2023-04-28T10:30:24;6.00;;;4.00;;
8213;SDS011;4148;47.974;7.824;2023-04-28T10:35:52;6.80;;;5.27;;
8213;SDS011;4148;47.974;7.824;2023-04-28T10:38:20;5.20;;;4.20;;
8213;SDS011;4148;47.974;7.824;2023-04-28T10:40:49;6.40;;;5.20;;
8213;SDS011;4148;47.974;7.824;2023-04-28T10:43:37;3.63;;;3.33;;
8213;SDS011;4148;47.974;7.824;2023-04-28T10:46:07;6.90;;;4.00;;
8213;SDS011;4148;47.974;7.824;2023-04-28T10:51:31;4.00;;;3.50;;
8213;SDS011;4148;47.974;7.824;2023-04-28T10:59:44;3.03;;;2.73;;
8213;SDS011;4148;47.974;7.824;2023-04-28T11:05:11;3.40;;;2.90;;
8213;SDS011;4148;47.974;7.824;2023-04-28T11:11:12;5.07;;;2.57;;
8213;SDS011;4148;47.974;7.824;2023-04-28T11:13:49;3.20;;;2.70;;
8213;SDS011;4148;47.974;7.824;2023-04-28T11:16:18;3.33;;;2.60;;
8213;SDS011;4148;47.974;7.824;2023-04-28T11:18:50;3.27;;;2.80;;
8213;SDS011;4148;47.974;7.824;2023-04-28T11:21:30;3.50;;;2.07;;
8213;SDS011;4148;47.974;7.824;2023-04-28T11:23:59;2.73;;;2.23;;
8213;SDS011;4148;47.974;7.824;2023-04-28T11:26:35;2.30;;;1.90;;
8213;SDS011;4148;47.974;7.824;2023-04-28T11:29:05;2.23;;;1.93;;
8213;SDS011;4148;47.974;7.824;2023-04-28T11:31:33;4.60;;;2.03;;
8213;SDS011;4148;47.974;7.824;2023-04-28T11:34:03;1.90;;;1.70;;
8213;SDS011;4148;47.974;7.824;2023-04-28T11:36:32;2.43;;;2.20;;
8213;SDS011;4148;47.974;7.824;2023-04-28T11:39:01;3.03;;;2.60;;
8213;SDS011;4148;47.974;7.824;2023-04-28T11:41:33;3.40;;;2.27;;
8213;SDS011;4148;47.974;7.824;2023-04-28T11:44:09;2.50;;;2.00;;
8213;SDS011;4148;47.974;7.824;2023-04-28T11:46:43;2.13;;;1.93;;
8213;SDS011;4148;47.974;7.824;2023-04-28T11:49:12;3.70;;;2.77;;
8213;SDS011;4148;47.974;7.824;2023-04-28T11:51:40;2.77;;;2.50;;
8213;SDS011;4148;47.974;7.824;2023-04-28T11:54:11;2.77;;;2.03;;
8213;SDS011;4148;47.974;7.824;2023-04-28T11:56:40;3.63;;;2.40;;
8213;SDS011;4148;47.974;7.824;2023-04-28T11:59:11;2.20;;;1.70;;
8213;SDS011;4148;47.974;7.824;2023-04-28T12:01:43;2.33;;;1.93;;
8213;SDS011;4148;47.974;7.824;2023-04-28T12:04:12;3.40;;;1.80;;
8213;SDS011;4148;47.974;7.824;2023-04-28T12:06:41;2.13;;;1.93;;
8213;SDS011;4148;47.974;7.824;2023-04-28T12:09:15;3.43;;;2.70;;
8213;SDS011;4148;47.974;7.824;2023-04-28T12:11:53;2.87;;;2.10;;
8213;SDS011;4148;47.974;7.824;2023-04-28T12:14:24;3.70;;;3.40;;
8213;SDS011;4148;47.974;7.824;2023-04-28T12:16:52;2.60;;;2.40;;
8213;SDS011;4148;47.974;7.824;2023-04-28T12:19:19;3.10;;;2.43;;
8213;SDS011;4148;47.974;7.824;2023-04-28T12:21:57;4.80;;;3.13;;
8213;SDS011;4148;47.974;7.824;2023-04-28T12:24:27;3.60;;;2.37;;
8213;SDS011;4148;47.974;7.824;2023-04-28T12:29:43;3.20;;;2.30;;
8213;SDS011;4148;47.974;7.824;2023-04-28T12:32:12;2.97;;;2.67;;
8213;SDS011;4148;47.974;7.824;2023-04-28T12:34:40;2.20;;;2.00;;
8213;SDS011;4148;47.974;7.824;2023-04-28T12:37:10;2.60;;;2.03;;
8213;SDS011;4148;47.974;7.824;2023-04-28T12:39:39;3.57;;;2.10;;
8213;SDS011;4148;47.974;7.824;2023-04-28T12:42:07;2.90;;;2.10;;
8213;SDS011;4148;47.974;7.824;2023-04-28T12:44:35;2.40;;;2.17;;
8213;SDS011;4148;47.974;7.824;2023-04-28T12:47:06;3.37;;;2.93;;
8213;SDS011;4148;47.974;7.824;2023-04-28T12:49:36;3.20;;;2.23;;
8213;SDS011;4148;47.974;7.824;2023-04-28T12:52:04;2.53;;;2.20;;
8213;SDS011;4148;47.974;7.824;2023-04-28T12:54:32;4.73;;;1.97;;
8213;SDS011;4148;47.974;7.824;2023-04-28T12:57:00;2.27;;;1.83;;
8213;SDS011;4148;47.974;7.824;2023-04-28T12:59:29;3.13;;;2.00;;
8213;SDS011;4148;47.974;7.824;2023-04-28T13:01:57;2.20;;;2.00;;
8213;SDS011;4148;47.974;7.824;2023-04-28T13:04:27;2.00;;;1.60;;
8213;SDS011;4148;47.974;7.824;2023-04-28T13:06:55;2.30;;;2.10;;
8213;SDS011;4148;47.974;7.824;2023-04-28T13:09:24;2.73;;;1.80;;
8213;SDS011;4148;47.974;7.824;2023-04-28T13:11:52;2.50;;;1.80;;
8213;SDS011;4148;47.974;7.824;2023-04-28T13:14:20;3.20;;;2.30;;
8213;SDS011;4148;47.974;7.824;2023-04-28T13:16:49;2.77;;;2.27;;
8213;SDS011;4148;47.974;7.824;2023-04-28T13:19:18;3.27;;;1.70;;
8213;SDS011;4148;47.974;7.824;2023-04-28T13:21:47;2.20;;;1.97;;
8213;SDS011;4148;47.974;7.824;2023-04-28T13:24:15;8.43;;;1.77;;
8213;SDS011;4148;47.974;7.824;2023-04-28T13:26:43;2.20;;;1.80;;
8213;SDS011;4148;47.974;7.824;2023-04-28T13:29:10;2.43;;;1.60;;
8213;SDS011;4148;47.974;7.824;2023-04-28T13:31:39;3.33;;;2.33;;
8213;SDS011;4148;47.974;7.824;2023-04-28T13:34:07;5.07;;;2.20;;
8213;SDS011;4148;47.974;7.824;2023-04-28T13:36:40;2.60;;;2.40;;
8213;SDS011;4148;47.974;7.824;2023-04-28T13:39:10;2.70;;;1.87;;
8213;SDS011;4148;47.974;7.824;2023-04-28T13:41:40;6.40;;;2.00;;
8213;SDS011;4148;47.974;7.824;2023-04-28T13:44:07;2.07;;;1.80;;
8213;SDS011;4148;47.974;7.824;2023-04-28T13:46:35;5.77;;;1.83;;
8213;SDS011;4148;47.974;7.824;2023-04-28T13:49:03;1.80;;;1.57;;
8213;SDS011;4148;47.974;7.824;2023-04-28T13:51:31;3.43;;;2.37;;
8213;SDS011;4148;47.974;7.824;2023-04-28T13:53:59;3.37;;;1.73;;
8213;SDS011;4148;47.974;7.824;2023-04-28T13:56:31;3.40;;;1.60;;
8213;SDS011;4148;47.974;7.824;2023-04-28T13:58:59;2.60;;;1.50;;
8213;SDS011;4148;47.974;7.824;2023-04-28T14:01:27;3.87;;;1.90;;
8213;SDS011;4148;47.974;7.824;2023-04-28T14:03:55;2.70;;;1.87;;
8213;SDS011;4148;47.974;7.824;2023-04-28T14:06:23;2.57;;;1.77;;
8213;SDS011;4148;47.974;7.824;2023-04-28T14:08:51;3.00;;;1.80;;
8213;SDS011;4148;47.974;7.824;2023-04-28T14:11:19;3.63;;;1.80;;
8213;SDS011;4148;47.974;7.824;2023-04-28T14:13:49;2.60;;;1.87;;
8213;SDS011;4148;47.974;7.824;2023-04-28T14:16:16;2.13;;;1.70;;
8213;SDS011;4148;47.974;7.824;2023-04-28T14:18:44;3.63;;;1.73;;
8213;SDS011;4148;47.974;7.824;2023-04-28T14:21:12;3.27;;;2.07;;
8213;SDS011;4148;47.974;7.824;2023-04-28T14:23:40;2.53;;;1.87;;
8213;SDS011;4148;47.974;7.824;2023-04-28T14:26:08;3.30;;;1.77;;
8213;SDS011;4148;47.974;7.824;2023-04-28T14:28:36;2.60;;;1.87;;
8213;SDS011;4148;47.974;7.824;2023-04-28T14:31:05;3.40;;;3.10;;
8213;SDS011;4148;47.974;7.824;2023-04-28T14:33:34;1.87;;;1.63;;
8213;SDS011;4148;47.974;7.824;2023-04-28T14:36:02;3.67;;;1.77;;
8213;SDS011;4148;47.974;7.824;2023-04-28T14:38:30;4.70;;;1.67;;
8213;SDS011;4148;47.974;7.824;2023-04-28T14:40:58;3.70;;;1.50;;
8213;SDS011;4148;47.974;7.824;2023-04-28T14:43:26;2.43;;;1.60;;
8213;SDS011;4148;47.974;7.824;2023-04-28T14:45:54;2.10;;;1.23;;
8213;SDS011;4148;47.974;7.824;2023-04-28T14:48:23;2.23;;;1.60;;
8213;SDS011;4148;47.974;7.824;2023-04-28T14:50:51;1.53;;;1.20;;
8213;SDS011;4148;47.974;7.824;2023-04-28T14:53:18;3.07;;;1.50;;
8213;SDS011;4148;47.974;7.824;2023-04-28T14:55:46;2.47;;;1.50;;
8213;SDS011;4148;47.974;7.824;2023-04-28T14:58:14;2.77;;;1.23;;
8213;SDS011;4148;47.974;7.824;2023-04-28T15:00:42;2.50;;;1.70;;
8213;SDS011;4148;47.974;7.824;2023-04-28T15:03:10;5.00;;;1.70;;
8213;SDS011;4148;47.974;7.824;2023-04-28T15:05:40;3.70;;;1.50;;
8213;SDS011;4148;47.974;7.824;2023-04-28T15:08:07;2.83;;;1.20;;
8213;SDS011;4148;47.974;7.824;2023-04-28T15:10:37;1.70;;;1.20;;
8213;SDS011;4148;47.974;7.824;2023-04-28T15:13:05;1.97;;;1.30;;
8213;SDS011;4148;47.974;7.824;2023-04-28T15:15:33;1.90;;;1.47;;
8213;SDS011;4148;47.974;7.824;2023-04-28T15:18:01;1.90;;;1.33;;
8213;SDS011;4148;47.974;7.824;2023-04-28T15:20:30;3.17;;;1.37;;
8213;SDS011;4148;47.974;7.824;2023-04-28T15:23:00;3.17;;;1.50;;
8213;SDS011;4148;47.974;7.824;2023-04-28T15:25:28;1.50;;;1.30;;
8213;SDS011;4148;47.974;7.824;2023-04-28T15:27:56;1.80;;;1.40;;
8213;SDS011;4148;47.974;7.824;2023-04-28T15:30:24;2.80;;;1.60;;
8213;SDS011;4148;47.974;7.824;2023-04-28T15:32:52;2.10;;;1.47;;
8213;SDS011;4148;47.974;7.824;2023-04-28T15:35:19;3.73;;;1.83;;
8213;SDS011;4148;47.974;7.824;2023-04-28T15:37:48;3.40;;;1.50;;
8213;SDS011;4148;47.974;7.824;2023-04-28T15:40:18;2.10;;;1.23;;
8213;SDS011;4148;47.974;7.824;2023-04-28T15:42:46;2.03;;;1.53;;
8213;SDS011;4148;47.974;7.824;2023-04-28T15:45:17;4.40;;;1.60;;
8213;SDS011;4148;47.974;7.824;2023-04-28T15:47:46;1.67;;;1.47;;